sensor_id;sensor_type;location;lat;lon;timestamp;pressure;altitude;pressure_sealevel;temperature;humidity
59009;BME280;44794;42.652;23.318;2024-02-23T00:00:47;94285.50;;;8.45;71.48
59009;BME280;44794;42.652;23.318;2024-02-23T00:03:12;94277.28;;;8.51;71.92
59009;BME280;44794;42.652;23.318;2024-02-23T00:05:38;94283.41;;;8.50;71.91
59009;BME280;44794;42.652;23.318;2024-02-23T00:08:03;94301.31;;;8.53;71.69
59009;BME280;44794;42.652;23.318;2024-02-23T00:10:28;94305.91;;;8.73;70.83
59009;BME280;44794;42.652;23.318;2024-02-23T00:12:54;94289.06;;;8.91;68.58
59009;BME280;44794;42.652;23.318;2024-02-23T00:15:19;94288.09;;;8.69;67.59
59009;BME280;44794;42.652;23.318;2024-02-23T00:17:44;94307.84;;;8.46;70.37
59009;BME280;44794;42.652;23.318;2024-02-23T00:20:10;94310.63;;;8.56;70.45
59009;BME280;44794;42.652;23.318;2024-02-23T00:22:40;94298.41;;;8.58;69.82
59009;BME280;44794;42.652;23.318;2024-02-23T00:25:05;94299.72;;;8.27;71.94
59009;BME280;44794;42.652;23.318;2024-02-23T00:27:30;94292.97;;;8.37;70.79
59009;BME280;44794;42.652;23.318;2024-02-23T00:29:56;94297.56;;;8.57;70.20
59009;BME280;44794;42.652;23.318;2024-02-23T00:32:21;94294.97;;;8.57;70.25
59009;BME280;44794;42.652;23.318;2024-02-23T00:34:46;94303.78;;;8.78;69.76
59009;BME280;44794;42.652;23.318;2024-02-23T00:37:12;94298.41;;;8.81;69.30
59009;BME280;44794;42.652;23.318;2024-02-23T00:39:37;94297.00;;;8.77;68.25
59009;BME280;44794;42.652;23.318;2024-02-23T00:42:02;94278.84;;;8.54;69.73
59009;BME280;44794;42.652;23.318;2024-02-23T00:44:28;94269.00;;;8.23;70.58
59009;BME280;44794;42.652;23.318;2024-02-23T00:46:53;94279.88;;;8.51;70.08
59009;BME280;44794;42.652;23.318;2024-02-23T00:49:18;94280.25;;;8.70;69.55
59009;BME280;44794;42.652;23.318;2024-02-23T00:51:43;94280.28;;;8.81;68.73
59009;BME280;44794;42.652;23.318;2024-02-23T00:54:09;94272.22;;;8.96;67.70
59009;BME280;44794;42.652;23.318;2024-02-23T00:56:34;94269.09;;;9.04;67.08
59009;BME280;44794;42.652;23.318;2024-02-23T00:59:00;94268.72;;;8.97;66.09
59009;BME280;44794;42.652;23.318;2024-02-23T01:01:25;94267.50;;;8.67;67.43
59009;BME280;44794;42.652;23.318;2024-02-23T01:03:51;94271.09;;;8.77;67.08
59009;BME280;44794;42.652;23.318;2024-02-23T01:06:17;94275.00;;;8.83;67.21
59009;BME280;44794;42.652;23.318;2024-02-23T01:08:42;94272.47;;;8.94;66.12
59009;BME280;44794;42.652;23.318;2024-02-23T01:11:07;94276.34;;;8.99;66.40
59009;BME280;44794;42.652;23.318;2024-02-23T01:13:33;94268.66;;;9.10;65.63
59009;BME280;44794;42.652;23.318;2024-02-23T01:15:58;94271.91;;;9.01;65.35
59009;BME280;44794;42.652;23.318;2024-02-23T01:18:23;94286.00;;;9.20;64.71
59009;BME280;44794;42.652;23.318;2024-02-23T01:20:48;94262.09;;;9.28;64.46
59009;BME280;44794;42.652;23.318;2024-02-23T01:23:13;94267.28;;;8.94;64.66
59009;BME280;44794;42.652;23.318;2024-02-23T01:25:39;94270.66;;;8.83;67.11
59009;BME280;44794;42.652;23.318;2024-02-23T01:28:04;94253.78;;;8.54;68.36
59009;BME280;44794;42.652;23.318;2024-02-23T01:30:29;94253.22;;;8.62;68.43
59009;BME280;44794;42.652;23.318;2024-02-23T01:32:55;94232.16;;;8.79;67.77
59009;BME280;44794;42.652;23.318;2024-02-23T01:35:20;94235.00;;;8.40;69.55
59009;BME280;44794;42.652;23.318;2024-02-23T01:37:45;94240.41;;;8.60;69.27
59009;BME280;44794;42.652;23.318;2024-02-23T01:40:10;94233.06;;;8.67;68.98
59009;BME280;44794;42.652;23.318;2024-02-23T01:42:36;94242.56;;;8.66;68.53
59009;BME280;44794;42.652;23.318;2024-02-23T01:45:01;94237.53;;;8.76;68.91
59009;BME280;44794;42.652;23.318;2024-02-23T01:47:28;94236.41;;;8.56;67.44
59009;BME280;44794;42.652;23.318;2024-02-23T01:49:54;94219.28;;;7.95;71.36
59009;BME280;44794;42.652;23.318;2024-02-23T01:52:20;94222.81;;;8.29;70.55
59009;BME280;44794;42.652;23.318;2024-02-23T01:54:46;94242.06;;;8.38;69.71
59009;BME280;44794;42.652;23.318;2024-02-23T01:57:11;94232.69;;;8.48;69.91
59009;BME280;44794;42.652;23.318;2024-02-23T01:59:37;94223.69;;;8.53;69.38
59009;BME280;44794;42.652;23.318;2024-02-23T02:02:03;94215.63;;;8.69;68.88
59009;BME280;44794;42.652;23.318;2024-02-23T02:04:28;94219.59;;;8.62;68.59
59009;BME280;44794;42.652;23.318;2024-02-23T02:06:53;94219.25;;;8.90;66.91
59009;BME280;44794;42.652;23.318;2024-02-23T02:09:19;94212.50;;;8.76;66.45
59009;BME280;44794;42.652;23.318;2024-02-23T02:11:47;94224.50;;;8.77;67.10
59009;BME280;44794;42.652;23.318;2024-02-23T02:14:13;94218.97;;;8.82;67.47
59009;BME280;44794;42.652;23.318;2024-02-23T02:16:39;94221.75;;;8.91;66.50
59009;BME280;44794;42.652;23.318;2024-02-23T02:19:04;94219.44;;;9.10;65.76
59009;BME280;44794;42.652;23.318;2024-02-23T02:21:30;94224.88;;;9.18;65.73
59009;BME280;44794;42.652;23.318;2024-02-23T02:23:55;94232.06;;;9.14;65.84
59009;BME280;44794;42.652;23.318;2024-02-23T02:26:21;94222.75;;;9.23;65.31
59009;BME280;44794;42.652;23.318;2024-02-23T02:28:46;94227.81;;;9.13;65.66
59009;BME280;44794;42.652;23.318;2024-02-23T02:31:12;94231.78;;;9.06;66.16
59009;BME280;44794;42.652;23.318;2024-02-23T02:33:37;94226.00;;;9.03;66.70
59009;BME280;44794;42.652;23.318;2024-02-23T02:36:02;94214.22;;;8.99;66.41
59009;BME280;44794;42.652;23.318;2024-02-23T02:38:28;94214.44;;;8.96;66.59
59009;BME280;44794;42.652;23.318;2024-02-23T02:40:53;94232.19;;;8.90;66.72
59009;BME280;44794;42.652;23.318;2024-02-23T02:43:18;94232.56;;;8.96;67.03
59009;BME280;44794;42.652;23.318;2024-02-23T02:45:43;94232.72;;;9.05;66.43
59009;BME280;44794;42.652;23.318;2024-02-23T02:48:09;94229.41;;;9.03;65.70
59009;BME280;44794;42.652;23.318;2024-02-23T02:50:34;94228.94;;;8.98;65.92
59009;BME280;44794;42.652;23.318;2024-02-23T02:52:59;94230.50;;;9.12;65.68
59009;BME280;44794;42.652;23.318;2024-02-23T02:55:25;94235.44;;;9.15;65.46
59009;BME280;44794;42.652;23.318;2024-02-23T02:57:50;94222.50;;;9.15;65.01
59009;BME280;44794;42.652;23.318;2024-02-23T03:00:15;94224.75;;;9.19;64.75
59009;BME280;44794;42.652;23.318;2024-02-23T03:02:40;94228.75;;;9.23;64.62
59009;BME280;44794;42.652;23.318;2024-02-23T03:05:06;94221.56;;;9.27;64.20
59009;BME280;44794;42.652;23.318;2024-02-23T03:07:31;94230.19;;;8.93;65.55
59009;BME280;44794;42.652;23.318;2024-02-23T03:09:56;94227.69;;;9.15;65.70
59009;BME280;44794;42.652;23.318;2024-02-23T03:12:22;94237.59;;;9.21;65.92
59009;BME280;44794;42.652;23.318;2024-02-23T03:14:47;94246.06;;;9.23;65.49
59009;BME280;44794;42.652;23.318;2024-02-23T03:17:12;94238.31;;;9.23;65.79
59009;BME280;44794;42.652;23.318;2024-02-23T03:19:37;94229.06;;;9.08;65.93
59009;BME280;44794;42.652;23.318;2024-02-23T03:22:03;94227.59;;;8.93;66.48
59009;BME280;44794;42.652;23.318;2024-02-23T03:24:28;94229.75;;;8.99;66.72
59009;BME280;44794;42.652;23.318;2024-02-23T03:26:54;94225.56;;;9.09;66.69
59009;BME280;44794;42.652;23.318;2024-02-23T03:29:20;94234.84;;;9.11;66.41
59009;BME280;44794;42.652;23.318;2024-02-23T03:31:45;94233.13;;;9.23;66.27
59009;BME280;44794;42.652;23.318;2024-02-23T03:34:10;94232.66;;;9.29;65.61
59009;BME280;44794;42.652;23.318;2024-02-23T03:36:38;94242.75;;;9.10;66.26
59009;BME280;44794;42.652;23.318;2024-02-23T03:39:03;94230.09;;;8.95;67.58
59009;BME280;44794;42.652;23.318;2024-02-23T03:41:28;94222.88;;;8.87;67.76
59009;BME280;44794;42.652;23.318;2024-02-23T03:43:53;94219.88;;;8.46;69.54
59009;BME280;44794;42.652;23.318;2024-02-23T03:46:19;94226.06;;;8.56;70.57
59009;BME280;44794;42.652;23.318;2024-02-23T03:48:45;94228.22;;;8.73;70.37
59009;BME280;44794;42.652;23.318;2024-02-23T03:51:10;94220.53;;;8.84;69.06
59009;BME280;44794;42.652;23.318;2024-02-23T03:53:35;94232.63;;;8.84;69.25
59009;BME280;44794;42.652;23.318;2024-02-23T03:56:00;94229.41;;;8.69;69.69
59009;BME280;44794;42.652;23.318;2024-02-23T03:58:26;94222.88;;;8.87;69.57
59009;BME280;44794;42.652;23.318;2024-02-23T04:00:51;94223.81;;;8.86;69.26
59009;BME280;44794;42.652;23.318;2024-02-23T04:03:16;94224.16;;;8.82;69.52
59009;BME280;44794;42.652;23.318;2024-02-23T04:05:42;94234.09;;;8.88;69.65
59009;BME280;44794;42.652;23.318;2024-02-23T04:08:07;94233.72;;;8.92;69.23
59009;BME280;44794;42.652;23.318;2024-02-23T04:10:32;94225.25;;;8.90;69.45
59009;BME280;44794;42.652;23.318;2024-02-23T04:12:58;94234.50;;;8.82;69.62
59009;BME280;44794;42.652;23.318;2024-02-23T04:15:23;94213.16;;;8.67;70.00
59009;BME280;44794;42.652;23.318;2024-02-23T04:17:49;94244.81;;;8.47;71.13
59009;BME280;44794;42.652;23.318;2024-02-23T04:20:14;94232.69;;;8.24;73.50
59009;BME280;44794;42.652;23.318;2024-02-23T04:22:39;94219.88;;;8.23;73.08
59009;BME280;44794;42.652;23.318;2024-02-23T04:25:05;94222.28;;;8.01;75.05
59009;BME280;44794;42.652;23.318;2024-02-23T04:27:30;94213.69;;;8.01;75.36
59009;BME280;44794;42.652;23.318;2024-02-23T04:29:55;94215.22;;;8.16;75.30
59009;BME280;44794;42.652;23.318;2024-02-23T04:32:21;94231.31;;;8.31;74.33
59009;BME280;44794;42.652;23.318;2024-02-23T04:34:46;94236.47;;;8.31;73.70
59009;BME280;44794;42.652;23.318;2024-02-23T04:37:11;94227.47;;;8.37;73.40
59009;BME280;44794;42.652;23.318;2024-02-23T04:39:37;94218.25;;;7.97;74.33
59009;BME280;44794;42.652;23.318;2024-02-23T04:42:03;94224.72;;;8.03;75.46
59009;BME280;44794;42.652;23.318;2024-02-23T04:44:28;94229.09;;;8.02;75.41
59009;BME280;44794;42.652;23.318;2024-02-23T04:46:54;94227.13;;;8.06;74.99
59009;BME280;44794;42.652;23.318;2024-02-23T04:49:19;94227.41;;;8.14;74.32
59009;BME280;44794;42.652;23.318;2024-02-23T04:51:44;94239.44;;;8.15;74.45
59009;BME280;44794;42.652;23.318;2024-02-23T04:54:09;94228.25;;;8.02;75.09
59009;BME280;44794;42.652;23.318;2024-02-23T04:56:35;94230.41;;;7.72;76.58
59009;BME280;44794;42.652;23.318;2024-02-23T04:59:00;94212.94;;;7.63;77.76
59009;BME280;44794;42.652;23.318;2024-02-23T05:01:25;94203.00;;;7.07;80.42
59009;BME280;44794;42.652;23.318;2024-02-23T05:03:50;94230.16;;;7.00;82.37
59009;BME280;44794;42.652;23.318;2024-02-23T05:06:16;94238.34;;;7.32;81.93
59009;BME280;44794;42.652;23.318;2024-02-23T05:08:41;94224.72;;;7.17;81.58
59009;BME280;44794;42.652;23.318;2024-02-23T05:11:06;94211.72;;;6.68;84.20
59009;BME280;44794;42.652;23.318;2024-02-23T05:13:31;94228.66;;;6.71;86.05
59009;BME280;44794;42.652;23.318;2024-02-23T05:15:57;94230.59;;;7.07;85.26
59009;BME280;44794;42.652;23.318;2024-02-23T05:18:22;94238.66;;;7.02;83.97
59009;BME280;44794;42.652;23.318;2024-02-23T05:20:47;94244.75;;;7.26;83.77
59009;BME280;44794;42.652;23.318;2024-02-23T05:23:13;94254.38;;;7.24;83.03
59009;BME280;44794;42.652;23.318;2024-02-23T05:25:40;94259.53;;;7.49;82.41
59009;BME280;44794;42.652;23.318;2024-02-23T05:28:06;94252.50;;;7.63;81.30
59009;BME280;44794;42.652;23.318;2024-02-23T05:30:31;94272.78;;;7.69;80.13
59009;BME280;44794;42.652;23.318;2024-02-23T05:32:57;94261.41;;;7.72;79.53
59009;BME280;44794;42.652;23.318;2024-02-23T05:35:23;94259.97;;;7.43;79.21
59009;BME280;44794;42.652;23.318;2024-02-23T05:37:48;94264.81;;;7.72;79.35
59009;BME280;44794;42.652;23.318;2024-02-23T05:40:15;94258.88;;;8.08;77.31
59009;BME280;44794;42.652;23.318;2024-02-23T05:42:40;94252.97;;;8.06;77.59
59009;BME280;44794;42.652;23.318;2024-02-23T05:45:08;94274.41;;;7.95;77.50
59009;BME280;44794;42.652;23.318;2024-02-23T05:47:37;94279.78;;;8.17;77.99
59009;BME280;44794;42.652;23.318;2024-02-23T05:50:03;94258.06;;;8.20;77.07
59009;BME280;44794;42.652;23.318;2024-02-23T05:52:30;94264.81;;;8.69;73.51
59009;BME280;44794;42.652;23.318;2024-02-23T05:54:56;94300.31;;;9.48;69.71
59009;BME280;44794;42.652;23.318;2024-02-23T05:57:21;94299.75;;;10.44;64.78
59009;BME280;44794;42.652;23.318;2024-02-23T05:59:46;94292.19;;;10.19;61.60
59009;BME280;44794;42.652;23.318;2024-02-23T06:02:12;94298.69;;;9.58;64.47
59009;BME280;44794;42.652;23.318;2024-02-23T06:04:37;94309.09;;;9.68;65.26
59009;BME280;44794;42.652;23.318;2024-02-23T06:07:02;94306.53;;;9.79;65.61
59009;BME280;44794;42.652;23.318;2024-02-23T06:09:27;94308.78;;;9.84;63.29
59009;BME280;44794;42.652;23.318;2024-02-23T06:11:53;94323.22;;;9.65;64.22
59009;BME280;44794;42.652;23.318;2024-02-23T06:14:18;94325.16;;;9.84;64.13
59009;BME280;44794;42.652;23.318;2024-02-23T06:16:43;94321.22;;;10.02;62.94
59009;BME280;44794;42.652;23.318;2024-02-23T06:19:09;94326.41;;;10.13;62.78
59009;BME280;44794;42.652;23.318;2024-02-23T06:21:34;94308.72;;;10.18;61.72
59009;BME280;44794;42.652;23.318;2024-02-23T06:23:59;94292.81;;;9.56;63.81
59009;BME280;44794;42.652;23.318;2024-02-23T06:26:25;94321.03;;;9.48;66.41
59009;BME280;44794;42.652;23.318;2024-02-23T06:28:50;94318.16;;;9.63;66.08
59009;BME280;44794;42.652;23.318;2024-02-23T06:31:15;94326.44;;;9.79;65.02
59009;BME280;44794;42.652;23.318;2024-02-23T06:33:41;94314.25;;;10.03;66.20
59009;BME280;44794;42.652;23.318;2024-02-23T06:36:07;94324.78;;;10.23;63.61
59009;BME280;44794;42.652;23.318;2024-02-23T06:38:33;94329.63;;;10.28;61.78
59009;BME280;44794;42.652;23.318;2024-02-23T06:40:58;94328.19;;;10.46;61.37
59009;BME280;44794;42.652;23.318;2024-02-23T06:43:23;94322.88;;;10.47;60.31
59009;BME280;44794;42.652;23.318;2024-02-23T06:45:49;94338.69;;;10.33;62.00
59009;BME280;44794;42.652;23.318;2024-02-23T06:48:14;94323.72;;;10.48;60.91
59009;BME280;44794;42.652;23.318;2024-02-23T06:50:39;94333.38;;;10.67;61.09
59009;BME280;44794;42.652;23.318;2024-02-23T06:53:04;94306.25;;;10.39;60.78
59009;BME280;44794;42.652;23.318;2024-02-23T06:55:31;94308.47;;;10.10;63.14
59009;BME280;44794;42.652;23.318;2024-02-23T06:57:58;94320.28;;;10.47;62.24
59009;BME280;44794;42.652;23.318;2024-02-23T07:00:23;94320.97;;;10.60;61.14
59009;BME280;44794;42.652;23.318;2024-02-23T07:02:48;94336.41;;;10.83;59.33
59009;BME280;44794;42.652;23.318;2024-02-23T07:05:13;94349.69;;;11.12;58.12
59009;BME280;44794;42.652;23.318;2024-02-23T07:07:39;94355.41;;;11.26;57.20
59009;BME280;44794;42.652;23.318;2024-02-23T07:10:05;94345.22;;;11.14;57.36
59009;BME280;44794;42.652;23.318;2024-02-23T07:12:31;94344.88;;;11.38;57.21
59009;BME280;44794;42.652;23.318;2024-02-23T07:14:56;94340.03;;;11.34;56.99
59009;BME280;44794;42.652;23.318;2024-02-23T07:17:21;94350.03;;;11.18;56.63
59009;BME280;44794;42.652;23.318;2024-02-23T07:19:47;94343.28;;;11.47;56.69
59009;BME280;44794;42.652;23.318;2024-02-23T07:22:12;94329.25;;;11.18;56.60
59009;BME280;44794;42.652;23.318;2024-02-23T07:24:41;94332.94;;;11.36;58.80
59009;BME280;44794;42.652;23.318;2024-02-23T07:27:06;94334.84;;;11.34;56.25
59009;BME280;44794;42.652;23.318;2024-02-23T07:29:32;94297.09;;;10.77;57.91
59009;BME280;44794;42.652;23.318;2024-02-23T07:31:57;94316.84;;;10.57;59.64
59009;BME280;44794;42.652;23.318;2024-02-23T07:34:22;94318.00;;;11.18;58.17
59009;BME280;44794;42.652;23.318;2024-02-23T07:36:48;94320.97;;;11.55;57.09
59009;BME280;44794;42.652;23.318;2024-02-23T07:39:16;94326.03;;;11.25;57.71
59009;BME280;44794;42.652;23.318;2024-02-23T07:41:41;94328.13;;;11.31;57.78
59009;BME280;44794;42.652;23.318;2024-02-23T07:44:06;94313.53;;;11.20;58.61
59009;BME280;44794;42.652;23.318;2024-02-23T07:46:32;94322.22;;;11.29;60.33
59009;BME280;44794;42.652;23.318;2024-02-23T07:48:57;94335.69;;;11.34;60.51
59009;BME280;44794;42.652;23.318;2024-02-23T07:51:22;94297.84;;;11.10;60.77
59009;BME280;44794;42.652;23.318;2024-02-23T07:53:47;94301.13;;;10.70;62.01
59009;BME280;44794;42.652;23.318;2024-02-23T07:56:13;94308.41;;;11.29;62.17
59009;BME280;44794;42.652;23.318;2024-02-23T07:58:38;94306.63;;;11.61;61.06
59009;BME280;44794;42.652;23.318;2024-02-23T08:01:03;94319.09;;;11.98;58.66
59009;BME280;44794;42.652;23.318;2024-02-23T08:03:29;94312.41;;;12.05;57.87
59009;BME280;44794;42.652;23.318;2024-02-23T08:05:54;94325.38;;;12.25;57.47
59009;BME280;44794;42.652;23.318;2024-02-23T08:08:19;94312.13;;;12.08;57.92
59009;BME280;44794;42.652;23.318;2024-02-23T08:10:47;94304.88;;;12.32;57.57
59009;BME280;44794;42.652;23.318;2024-02-23T08:13:14;94317.91;;;12.32;56.79
59009;BME280;44794;42.652;23.318;2024-02-23T08:15:40;94318.72;;;12.32;56.91
59009;BME280;44794;42.652;23.318;2024-02-23T08:18:05;94313.31;;;12.24;57.14
59009;BME280;44794;42.652;23.318;2024-02-23T08:20:31;94319.06;;;12.48;56.61
59009;BME280;44794;42.652;23.318;2024-02-23T08:22:56;94317.34;;;12.68;55.79
59009;BME280;44794;42.652;23.318;2024-02-23T08:25:21;94312.53;;;12.63;56.55
59009;BME280;44794;42.652;23.318;2024-02-23T08:27:46;94322.66;;;12.96;55.52
59009;BME280;44794;42.652;23.318;2024-02-23T08:30:13;94315.53;;;12.88;54.65
59009;BME280;44794;42.652;23.318;2024-02-23T08:32:38;94304.72;;;12.63;55.64
59009;BME280;44794;42.652;23.318;2024-02-23T08:35:04;94311.53;;;12.55;56.02
59009;BME280;44794;42.652;23.318;2024-02-23T08:37:29;94308.00;;;12.65;55.47
59009;BME280;44794;42.652;23.318;2024-02-23T08:39:54;94313.34;;;12.93;54.53
59009;BME280;44794;42.652;23.318;2024-02-23T08:42:20;94303.69;;;12.84;54.27
59009;BME280;44794;42.652;23.318;2024-02-23T08:44:45;94301.78;;;12.86;54.51
59009;BME280;44794;42.652;23.318;2024-02-23T08:47:10;94311.47;;;13.14;54.24
59009;BME280;44794;42.652;23.318;2024-02-23T08:49:35;94328.38;;;13.67;51.28
59009;BME280;44794;42.652;23.318;2024-02-23T08:52:01;94315.06;;;13.70;53.16
59009;BME280;44794;42.652;23.318;2024-02-23T08:54:27;94315.63;;;13.54;53.59
59009;BME280;44794;42.652;23.318;2024-02-23T08:56:52;94322.53;;;13.07;54.74
59009;BME280;44794;42.652;23.318;2024-02-23T08:59:17;94304.84;;;13.10;55.77
59009;BME280;44794;42.652;23.318;2024-02-23T09:01:43;94326.56;;;13.11;52.49
59009;BME280;44794;42.652;23.318;2024-02-23T09:04:09;94309.00;;;13.32;53.70
59009;BME280;44794;42.652;23.318;2024-02-23T09:06:34;94311.88;;;13.38;53.89
59009;BME280;44794;42.652;23.318;2024-02-23T09:09:00;94313.25;;;13.70;53.56
59009;BME280;44794;42.652;23.318;2024-02-23T09:11:25;94306.25;;;13.52;53.49
59009;BME280;44794;42.652;23.318;2024-02-23T09:13:51;94300.50;;;13.67;53.33
59009;BME280;44794;42.652;23.318;2024-02-23T09:16:16;94307.91;;;13.81;51.55
59009;BME280;44794;42.652;23.318;2024-02-23T09:18:42;94310.06;;;14.05;51.51
59009;BME280;44794;42.652;23.318;2024-02-23T09:21:07;94310.06;;;14.24;50.82
59009;BME280;44794;42.652;23.318;2024-02-23T09:23:33;94312.06;;;14.48;50.64
59009;BME280;44794;42.652;23.318;2024-02-23T09:25:59;94326.13;;;14.74;49.03
59009;BME280;44794;42.652;23.318;2024-02-23T09:28:24;94329.22;;;14.87;47.77
59009;BME280;44794;42.652;23.318;2024-02-23T09:30:49;94314.22;;;14.89;47.73
59009;BME280;44794;42.652;23.318;2024-02-23T09:33:20;94307.66;;;14.76;47.85
59009;BME280;44794;42.652;23.318;2024-02-23T09:35:45;94326.00;;;15.20;46.64
59009;BME280;44794;42.652;23.318;2024-02-23T09:38:11;94321.34;;;15.41;46.22
59009;BME280;44794;42.652;23.318;2024-02-23T09:40:36;94327.94;;;15.97;44.25
59009;BME280;44794;42.652;23.318;2024-02-23T09:43:02;94334.06;;;16.05;43.88
59009;BME280;44794;42.652;23.318;2024-02-23T09:45:28;94325.69;;;16.02;43.58
59009;BME280;44794;42.652;23.318;2024-02-23T09:48:35;94313.47;;;15.85;44.46
59009;BME280;44794;42.652;23.318;2024-02-23T09:51:01;94310.78;;;15.60;44.02
59009;BME280;44794;42.652;23.318;2024-02-23T09:53:26;94305.53;;;15.60;44.68
59009;BME280;44794;42.652;23.318;2024-02-23T09:55:51;94307.38;;;15.32;44.44
59009;BME280;44794;42.652;23.318;2024-02-23T09:58:18;94303.69;;;15.95;43.97
59009;BME280;44794;42.652;23.318;2024-02-23T10:00:44;94315.97;;;16.29;43.01
59009;BME280;44794;42.652;23.318;2024-02-23T10:03:10;94307.66;;;16.16;43.11
59009;BME280;44794;42.652;23.318;2024-02-23T10:05:35;94313.69;;;16.17;42.62
59009;BME280;44794;42.652;23.318;2024-02-23T10:08:00;94308.84;;;16.47;42.01
59009;BME280;44794;42.652;23.318;2024-02-23T10:10:30;94323.03;;;16.62;41.88
59009;BME280;44794;42.652;23.318;2024-02-23T10:12:57;94314.72;;;17.00;41.44
59009;BME280;44794;42.652;23.318;2024-02-23T10:15:22;94312.41;;;17.38;38.90
59009;BME280;44794;42.652;23.318;2024-02-23T10:17:47;94320.63;;;17.10;39.37
59009;BME280;44794;42.652;23.318;2024-02-23T10:20:13;94305.88;;;16.67;39.91
59009;BME280;44794;42.652;23.318;2024-02-23T10:22:39;94290.38;;;16.56;40.13
59009;BME280;44794;42.652;23.318;2024-02-23T10:25:04;94291.38;;;15.87;41.70
59009;BME280;44794;42.652;23.318;2024-02-23T10:27:29;94301.09;;;16.63;41.98
59009;BME280;44794;42.652;23.318;2024-02-23T10:29:55;94310.41;;;16.91;38.91
59009;BME280;44794;42.652;23.318;2024-02-23T10:32:20;94296.31;;;16.58;38.93
59009;BME280;44794;42.652;23.318;2024-02-23T10:34:47;94296.53;;;16.65;39.73
59009;BME280;44794;42.652;23.318;2024-02-23T10:37:13;94288.47;;;17.00;40.28
59009;BME280;44794;42.652;23.318;2024-02-23T10:39:39;94289.09;;;16.94;38.85
59009;BME280;44794;42.652;23.318;2024-02-23T10:42:04;94288.69;;;17.14;38.21
59009;BME280;44794;42.652;23.318;2024-02-23T10:44:33;94286.97;;;16.89;38.81
59009;BME280;44794;42.652;23.318;2024-02-23T10:46:59;94296.19;;;17.01;38.55
59009;BME280;44794;42.652;23.318;2024-02-23T10:49:25;94276.22;;;16.16;40.21
59009;BME280;44794;42.652;23.318;2024-02-23T10:51:54;94285.19;;;16.64;38.98
59009;BME280;44794;42.652;23.318;2024-02-23T10:54:19;94279.19;;;16.80;39.06
59009;BME280;44794;42.652;23.318;2024-02-23T10:56:46;94276.97;;;16.93;38.56
59009;BME280;44794;42.652;23.318;2024-02-23T10:59:11;94269.72;;;16.87;38.57
59009;BME280;44794;42.652;23.318;2024-02-23T11:01:37;94278.31;;;17.05;38.44
59009;BME280;44794;42.652;23.318;2024-02-23T11:04:07;94269.63;;;17.53;38.33
59009;BME280;44794;42.652;23.318;2024-02-23T11:06:33;94274.91;;;17.69;37.08
59009;BME280;44794;42.652;23.318;2024-02-23T11:09:05;94265.53;;;17.91;37.52
59009;BME280;44794;42.652;23.318;2024-02-23T11:11:31;94269.16;;;17.66;37.49
59009;BME280;44794;42.652;23.318;2024-02-23T11:13:57;94261.72;;;17.45;38.23
59009;BME280;44794;42.652;23.318;2024-02-23T11:16:22;94253.41;;;17.17;38.29
59009;BME280;44794;42.652;23.318;2024-02-23T11:19:04;94252.19;;;17.36;37.84
59009;BME280;44794;42.652;23.318;2024-02-23T11:21:37;94250.19;;;17.31;38.30
59009;BME280;44794;42.652;23.318;2024-02-23T11:24:03;94248.88;;;17.27;37.47
59009;BME280;44794;42.652;23.318;2024-02-23T11:26:31;94234.94;;;17.34;38.15
59009;BME280;44794;42.652;23.318;2024-02-23T11:29:08;94232.75;;;17.22;38.43
59009;BME280;44794;42.652;23.318;2024-02-23T11:31:34;94224.78;;;17.39;37.99
59009;BME280;44794;42.652;23.318;2024-02-23T11:33:59;94223.34;;;17.68;38.14
59009;BME280;44794;42.652;23.318;2024-02-23T11:36:28;94221.03;;;17.73;38.02
59009;BME280;44794;42.652;23.318;2024-02-23T11:38:54;94229.22;;;18.02;37.22
59009;BME280;44794;42.652;23.318;2024-02-23T11:41:21;94230.03;;;18.34;36.42
59009;BME280;44794;42.652;23.318;2024-02-23T11:43:48;94255.19;;;18.21;36.00
59009;BME280;44794;42.652;23.318;2024-02-23T11:46:14;94216.75;;;16.42;38.14
59009;BME280;44794;42.652;23.318;2024-02-23T11:48:40;94208.72;;;16.18;38.87
59009;BME280;44794;42.652;23.318;2024-02-23T11:51:05;94216.56;;;16.36;39.81
59009;BME280;44794;42.652;23.318;2024-02-23T11:53:33;94219.22;;;16.44;38.58
59009;BME280;44794;42.652;23.318;2024-02-23T11:55:58;94220.09;;;16.60;37.55
59009;BME280;44794;42.652;23.318;2024-02-23T11:58:23;94214.63;;;16.79;37.08
59009;BME280;44794;42.652;23.318;2024-02-23T12:00:50;94215.19;;;17.14;36.70
59009;BME280;44794;42.652;23.318;2024-02-23T12:03:16;94224.31;;;16.86;36.29
59009;BME280;44794;42.652;23.318;2024-02-23T12:05:42;94217.88;;;16.81;36.36
59009;BME280;44794;42.652;23.318;2024-02-23T12:08:08;94208.59;;;16.94;36.67
59009;BME280;44794;42.652;23.318;2024-02-23T12:10:33;94210.16;;;17.21;36.05
59009;BME280;44794;42.652;23.318;2024-02-23T12:12:58;94194.59;;;17.27;36.22
59009;BME280;44794;42.652;23.318;2024-02-23T12:15:24;94187.47;;;17.04;36.61
59009;BME280;44794;42.652;23.318;2024-02-23T12:17:49;94183.06;;;17.20;36.92
59009;BME280;44794;42.652;23.318;2024-02-23T12:20:15;94205.91;;;17.43;36.36
59009;BME280;44794;42.652;23.318;2024-02-23T12:22:41;94186.84;;;17.26;36.92
59009;BME280;44794;42.652;23.318;2024-02-23T12:25:06;94177.81;;;17.20;37.00
59009;BME280;44794;42.652;23.318;2024-02-23T12:27:32;94196.06;;;16.72;36.85
59009;BME280;44794;42.652;23.318;2024-02-23T12:29:57;94176.19;;;16.54;37.64
59009;BME280;44794;42.652;23.318;2024-02-23T12:32:22;94170.25;;;16.52;37.81
59009;BME280;44794;42.652;23.318;2024-02-23T12:34:48;94186.47;;;16.97;37.14
59009;BME280;44794;42.652;23.318;2024-02-23T12:37:17;94185.25;;;17.40;35.74
59009;BME280;44794;42.652;23.318;2024-02-23T12:39:43;94188.69;;;17.49;35.92
59009;BME280;44794;42.652;23.318;2024-02-23T12:42:08;94170.16;;;17.74;36.09
59009;BME280;44794;42.652;23.318;2024-02-23T12:44:33;94170.97;;;17.35;35.91
59009;BME280;44794;42.652;23.318;2024-02-23T12:46:58;94165.53;;;17.29;35.79